Time;durP1;ratioP1;P1;durP2;ratioP2;P2;SDS_P1;SDS_P2;PMS_P1;PMS_P2;Temp;Humidity;BMP_temperature;BMP_pressure;BME280_temperature;BME280_humidity;BME280_pressure;Samples;Min_cycle;Max_cycle;Signal;HPM_P1;HPM_P2
2021/09/27 00:02:20;;;;;;;28.85;18.48;;;14.60;99.90;;;;;;5070747;28;20020;-56
2021/09/27 00:04:46;;;;;;;25.60;17.40;;;14.60;99.90;;;;;;5064504;28;20024;-59
2021/09/27 00:07:11;;;;;;;24.50;16.77;;;14.60;99.90;;;;;;5062705;28;20041;-56
2021/09/27 00:09:37;;;;;;;36.17;19.33;;;14.60;99.90;;;;;;5069288;28;20025;-58
2021/09/27 00:12:07;;;;;;;30.77;17.55;;;14.60;99.90;;;;;;5067265;28;20024;-58
2021/09/27 00:14:33;;;;;;;27.10;18.80;;;14.50;99.90;;;;;;5069748;28;20037;-57
2021/09/27 00:17:00;;;;;;;29.50;20.50;;;14.50;99.90;;;;;;5069698;28;20028;-58
2021/09/27 00:19:26;;;;;;;27.50;18.73;;;14.50;99.90;;;;;;5076218;28;20066;-51
2021/09/27 00:21:54;;;;;;;30.25;18.23;;;14.50;99.90;;;;;;5057330;28;20654;-58
2021/09/27 00:24:20;;;;;;;29.40;19.38;;;14.50;99.90;;;;;;5065016;28;20021;-59
2021/09/27 00:26:46;;;;;;;25.65;17.25;;;14.50;99.90;;;;;;5062492;28;20064;-56
2021/09/27 00:29:12;;;;;;;24.67;18.02;;;14.40;99.90;;;;;;5058134;28;20065;-58
2021/09/27 00:31:38;;;;;;;31.35;20.67;;;14.40;99.90;;;;;;5064565;28;20037;-54
2021/09/27 00:34:03;;;;;;;30.73;21.52;;;14.40;99.90;;;;;;5055611;28;20032;-58
2021/09/27 00:36:29;;;;;;;38.90;27.42;;;14.40;99.90;;;;;;5061683;28;20032;-57
2021/09/27 00:38:55;;;;;;;33.95;23.70;;;14.40;99.90;;;;;;5064787;28;20036;-58
2021/09/27 00:41:22;;;;;;;35.20;23.58;;;14.30;99.90;;;;;;5070754;28;20107;-56
2021/09/27 00:43:49;;;;;;;29.80;19.45;;;14.30;99.90;;;;;;5071153;28;20029;-56
2021/09/27 00:46:20;;;;;;;34.90;21.58;;;14.30;99.90;;;;;;5073198;28;20502;-59
2021/09/27 00:48:46;;;;;;;31.48;20.88;;;14.30;99.90;;;;;;5059307;28;20036;-59
2021/09/27 00:51:16;;;;;;;29.02;19.00;;;14.40;99.90;;;;;;5063813;28;20885;-59
2021/09/27 00:53:49;;;;;;;31.52;21.27;;;14.30;99.90;;;;;;5055226;28;20064;-57
2021/09/27 00:56:19;;;;;;;34.40;22.35;;;14.30;99.90;;;;;;5063929;28;20062;-59
2021/09/27 00:58:46;;;;;;;33.10;23.00;;;14.30;99.90;;;;;;5077008;28;20087;-58
2021/09/27 01:01:13;;;;;;;41.90;22.63;;;14.30;99.90;;;;;;5069917;28;20063;-54
2021/09/27 01:03:38;;;;;;;27.40;20.33;;;14.30;99.90;;;;;;5072756;28;20041;-58
2021/09/27 01:06:39;;;;;;;37.47;23.67;;;14.30;99.90;;;;;;5076189;28;20020;-58
2021/09/27 01:09:29;;;;;;;28.45;21.60;;;14.40;99.90;;;;;;5064042;28;20032;-58
2021/09/27 01:12:28;;;;;;;30.60;21.98;;;14.30;99.90;;;;;;5073961;28;20060;-59
2021/09/27 01:15:06;;;;;;;36.90;22.85;;;14.30;99.90;;;;;;5079126;28;20079;-58
2021/09/27 01:17:43;;;;;;;32.78;21.90;;;14.30;99.90;;;;;;5058192;28;20064;-59
2021/09/27 01:20:36;;;;;;;31.23;22.33;;;14.30;99.90;;;;;;5064069;28;20024;-61
2021/09/27 01:23:14;;;;;;;29.00;20.58;;;14.30;99.90;;;;;;5062621;28;20032;-58
2021/09/27 01:26:27;;;;;;;33.15;20.77;;;14.20;99.90;;;;;;5072595;28;20020;-60
2021/09/27 01:29:01;;;;;;;37.22;21.58;;;14.30;99.90;;;;;;5064478;28;20397;-57
2021/09/27 01:31:48;;;;;;;28.15;20.40;;;14.30;99.90;;;;;;5080521;28;20029;-57
2021/09/27 01:34:33;;;;;;;30.75;20.67;;;14.30;99.90;;;;;;5069337;28;20035;-56
2021/09/27 01:37:28;;;;;;;30.80;20.67;;;14.30;99.90;;;;;;5062559;28;20040;-59
2021/09/27 01:39:59;;;;;;;34.40;20.45;;;14.30;99.90;;;;;;5075425;28;20073;-59
2021/09/27 01:42:37;;;;;;;28.17;19.60;;;14.30;99.90;;;;;;5078574;28;20055;-57
2021/09/27 01:45:40;;;;;;;30.08;20.45;;;14.40;99.90;;;;;;5074155;28;20389;-58
2021/09/27 01:48:27;;;;;;;41.42;22.70;;;14.40;99.90;;;;;;5063712;28;20030;-60
2021/09/27 01:50:56;;;;;;;31.98;21.58;;;14.50;99.90;;;;;;5090383;28;20029;-58
2021/09/27 01:53:35;;;;;;;29.35;19.67;;;14.50;99.90;;;;;;5081218;28;20024;-59
2021/09/27 01:56:10;;;;;;;27.63;19.40;;;14.60;99.90;;;;;;5067672;28;20039;-57
2021/09/27 01:58:38;;;;;;;31.98;20.45;;;14.60;99.90;;;;;;5071678;28;20043;-59
2021/09/27 02:01:09;;;;;;;33.15;20.52;;;14.70;99.90;;;;;;5070278;28;20056;-58
2021/09/27 02:03:50;;;;;;;26.65;20.08;;;14.70;99.90;;;;;;5057731;28;20038;-58
2021/09/27 02:06:30;;;;;;;29.63;18.83;;;14.70;99.90;;;;;;5071215;28;20036;-58
2021/09/27 02:09:06;;;;;;;29.02;19.60;;;14.70;99.90;;;;;;5082494;28;20028;-52
2021/09/27 02:11:35;;;;;;;25.73;18.02;;;14.70;99.90;;;;;;5061926;28;20122;-58
2021/09/27 02:14:13;;;;;;;24.98;18.48;;;14.70;99.90;;;;;;5072677;28;20035;-58
2021/09/27 02:16:53;;;;;;;28.23;18.27;;;14.70;99.90;;;;;;5062919;28;20029;-57
2021/09/27 02:19:45;;;;;;;30.08;18.10;;;14.70;99.90;;;;;;5079762;28;20040;-58
2021/09/27 02:22:29;;;;;;;29.05;17.60;;;14.60;99.90;;;;;;5056779;28;20029;-58
2021/09/27 02:25:01;;;;;;;27.80;18.65;;;14.60;99.90;;;;;;5063140;28;20253;-60
2021/09/27 02:27:26;;;;;;;28.13;18.27;;;14.50;99.90;;;;;;5066797;28;20056;-59
2021/09/27 02:29:52;;;;;;;27.77;18.67;;;14.50;99.90;;;;;;5073020;28;20502;-60
2021/09/27 02:32:27;;;;;;;31.60;20.73;;;14.50;99.90;;;;;;5076007;28;20059;-58
2021/09/27 02:35:00;;;;;;;33.63;19.48;;;14.50;99.90;;;;;;5073250;28;20498;-57
2021/09/27 02:37:48;;;;;;;33.83;21.15;;;14.60;99.90;;;;;;5086267;28;20554;-59
2021/09/27 02:40:41;;;;;;;27.73;19.90;;;14.60;99.90;;;;;;5073062;28;20023;-58
2021/09/27 02:43:10;;;;;;;27.90;18.92;;;14.60;99.90;;;;;;5075849;28;20537;-58
2021/09/27 02:45:38;;;;;;;29.73;18.73;;;14.70;99.90;;;;;;5072156;28;20043;-55
2021/09/27 02:48:20;;;;;;;25.52;18.50;;;14.70;99.90;;;;;;5061688;28;20062;-60
2021/09/27 02:50:53;;;;;;;26.60;19.10;;;14.70;99.90;;;;;;5070403;28;20393;-51
2021/09/27 02:53:20;;;;;;;32.40;18.43;;;14.70;99.90;;;;;;5081202;28;20036;-54
2021/09/27 02:56:12;;;;;;;25.30;18.25;;;14.70;99.90;;;;;;5059228;28;20024;-57
2021/09/27 02:59:02;;;;;;;26.05;18.33;;;14.70;99.90;;;;;;5068403;28;20454;-57
2021/09/27 03:01:49;;;;;;;23.85;16.40;;;14.80;99.90;;;;;;5059342;28;20029;-58
2021/09/27 03:04:38;;;;;;;31.90;20.73;;;14.70;99.90;;;;;;5062926;28;20052;-59
2021/09/27 03:07:07;;;;;;;25.15;19.05;;;14.80;99.90;;;;;;5058887;28;20029;-57
2021/09/27 03:09:57;;;;;;;26.98;17.02;;;14.80;99.90;;;;;;5058841;28;20108;-53
2021/09/27 03:12:42;;;;;;;28.50;17.83;;;14.70;99.90;;;;;;5077077;28;20099;-58
2021/09/27 03:15:16;;;;;;;30.20;18.95;;;14.70;99.90;;;;;;5069248;28;20388;-59
2021/09/27 03:17:45;;;;;;;26.73;18.13;;;14.60;99.90;;;;;;5077747;28;20032;-58
2021/09/27 03:20:37;;;;;;;22.38;17.05;;;14.60;99.90;;;;;;5069972;28;20401;-57
2021/09/27 03:23:17;;;;;;;30.20;18.35;;;14.50;99.90;;;;;;5071332;28;20020;-53
2021/09/27 03:25:51;;;;;;;27.80;17.55;;;14.40;99.90;;;;;;5082143;28;20384;-55
2021/09/27 03:28:44;;;;;;;29.50;19.73;;;14.30;99.90;;;;;;5068933;28;20028;-57
2021/09/27 03:31:31;;;;;;;28.52;17.88;;;14.20;99.90;;;;;;5076420;28;20032;-57
2021/09/27 03:34:27;;;;;;;31.10;19.48;;;14.10;99.90;;;;;;5075891;28;21829;-58
2021/09/27 03:36:59;;;;;;;29.98;19.27;;;14.10;99.90;;;;;;5081705;28;20031;-58
2021/09/27 03:39:39;;;;;;;29.50;18.45;;;14.10;99.90;;;;;;5084227;28;20024;-58
2021/09/27 03:42:35;;;;;;;28.52;20.80;;;14.10;99.90;;;;;;5064902;28;20088;-58
2021/09/27 03:45:12;;;;;;;30.90;19.70;;;14.00;99.90;;;;;;5060577;28;20040;-57
2021/09/27 03:47:54;;;;;;;34.13;21.67;;;14.00;99.90;;;;;;5066505;28;20024;-57
2021/09/27 03:50:31;;;;;;;30.80;20.10;;;14.00;99.90;;;;;;5066474;28;20540;-58
2021/09/27 03:53:20;;;;;;;34.38;21.25;;;14.00;99.90;;;;;;5067855;28;20033;-57
2021/09/27 03:55:57;;;;;;;37.15;20.67;;;14.00;99.90;;;;;;5056795;28;20036;-54
2021/09/27 03:58:27;;;;;;;33.80;19.42;;;14.00;99.90;;;;;;5067066;28;20448;-57
2021/09/27 04:01:08;;;;;;;33.47;21.25;;;13.90;99.90;;;;;;5063033;28;20033;-58
2021/09/27 04:03:41;;;;;;;36.15;20.70;;;13.90;99.90;;;;;;5060189;28;20024;-61
2021/09/27 04:06:31;;;;;;;30.40;21.02;;;13.90;99.90;;;;;;5068180;28;20028;-59
2021/09/27 04:09:02;;;;;;;36.17;21.25;;;13.80;99.90;;;;;;5070827;28;20109;-59
2021/09/27 04:11:52;;;;;;;35.90;22.67;;;13.80;99.90;;;;;;5058819;28;20055;-60
2021/09/27 04:14:40;;;;;;;35.90;21.85;;;13.80;99.90;;;;;;5069429;28;20079;-58
2021/09/27 04:17:31;;;;;;;36.88;22.60;;;13.80;99.90;;;;;;5073295;28;20028;-59
2021/09/27 04:20:08;;;;;;;38.05;21.00;;;13.80;99.90;;;;;;5078516;28;20027;-59
2021/09/27 04:22:39;;;;;;;32.78;19.45;;;13.80;99.90;;;;;;5072749;28;20024;-59
2021/09/27 04:25:43;;;;;;;31.88;21.30;;;13.70;99.90;;;;;;5068102;28;20024;-59
2021/09/27 04:28:17;;;;;;;37.53;22.48;;;13.70;99.90;;;;;;5059385;28;20024;-58
2021/09/27 04:31:21;;;;;;;31.65;19.88;;;13.70;99.90;;;;;;5075960;28;20094;-54
2021/09/27 04:34:17;;;;;;;39.63;24.05;;;13.60;99.90;;;;;;5063176;28;20029;-59
2021/09/27 04:36:45;;;;;;;41.33;22.60;;;13.60;99.90;;;;;;5060521;28;20029;-59
2021/09/27 04:39:19;;;;;;;38.30;22.05;;;13.60;99.90;;;;;;5058136;28;20025;-57
2021/09/27 04:42:29;;;;;;;41.58;23.48;;;13.60;99.90;;;;;;5060728;28;20024;-59
2021/09/27 04:45:22;;;;;;;38.38;23.92;;;13.60;99.90;;;;;;5064941;28;20028;-58
2021/09/27 04:47:59;;;;;;;36.38;22.45;;;13.50;99.90;;;;;;5060387;28;20021;-59
2021/09/27 04:51:02;;;;;;;46.40;26.85;;;13.50;99.90;;;;;;5061142;28;20032;-60
2021/09/27 04:53:58;;;;;;;43.08;25.40;;;13.60;99.90;;;;;;5063648;28;20097;-60
2021/09/27 04:56:36;;;;;;;45.00;23.95;;;13.70;99.90;;;;;;5062971;28;20107;-58
2021/09/27 04:59:17;;;;;;;39.65;24.20;;;13.70;99.90;;;;;;5062971;28;20025;-58
2021/09/27 05:02:08;;;;;;;39.75;25.65;;;13.70;99.90;;;;;;5064388;28;20031;-60
2021/09/27 05:04:42;;;;;;;54.53;27.00;;;13.80;99.90;;;;;;5061194;28;20083;-55
2021/09/27 05:07:15;;;;;;;38.90;23.90;;;13.80;99.90;;;;;;5056539;28;20035;-55
2021/09/27 05:09:54;;;;;;;37.42;21.67;;;13.90;99.90;;;;;;5070633;28;20048;-55
2021/09/27 05:12:40;;;;;;;33.50;22.17;;;13.90;99.90;;;;;;5063401;28;20033;-57
2021/09/27 05:15:44;;;;;;;31.95;21.20;;;13.90;99.90;;;;;;5056480;28;20112;-56
2021/09/27 05:18:47;;;;;;;37.40;22.58;;;14.00;99.90;;;;;;5064727;28;20028;-57
2021/09/27 05:21:27;;;;;;;35.60;22.10;;;14.10;99.90;;;;;;5073221;28;20071;-59
2021/09/27 05:24:19;;;;;;;38.78;21.33;;;14.10;99.90;;;;;;5060070;28;20409;-56
2021/09/27 05:27:22;;;;;;;33.78;22.38;;;14.10;99.90;;;;;;5059364;28;20029;-56
2021/09/27 05:30:00;;;;;;;33.78;21.73;;;14.20;99.90;;;;;;5029404;28;20143;-56
2021/09/27 05:32:48;;;;;;;30.58;19.67;;;14.20;99.90;;;;;;5075750;28;20036;-59
2021/09/27 05:35:22;;;;;;;30.23;19.10;;;14.30;99.90;;;;;;5062940;28;20048;-57
2021/09/27 05:37:50;;;;;;;29.50;18.95;;;14.30;99.90;;;;;;5071299;28;20035;-57
2021/09/27 05:40:32;;;;;;;32.08;19.92;;;14.40;99.90;;;;;;5071455;28;20017;-59
2021/09/27 05:43:09;;;;;;;30.35;19.13;;;14.40;99.90;;;;;;5077340;28;20072;-58
2021/09/27 05:46:15;;;;;;;31.85;19.83;;;14.40;99.90;;;;;;5073537;28;20096;-59
2021/09/27 05:49:01;;;;;;;25.77;18.67;;;14.50;99.90;;;;;;5069032;28;20021;-58
2021/09/27 05:51:47;;;;;;;28.05;16.65;;;14.50;99.90;;;;;;5061586;28;20530;-55
2021/09/27 05:54:31;;;;;;;31.30;17.80;;;14.60;99.90;;;;;;5064259;28;20028;-58
2021/09/27 05:57:15;;;;;;;26.20;17.23;;;14.60;99.90;;;;;;5070410;28;20035;-54
2021/09/27 05:59:56;;;;;;;29.48;16.77;;;14.60;99.90;;;;;;5069720;28;20047;-57
2021/09/27 06:02:56;;;;;;;28.45;17.95;;;14.70;99.90;;;;;;5056834;28;20016;-60
2021/09/27 06:05:25;;;;;;;21.25;15.38;;;14.70;99.90;;;;;;5065605;28;20028;-53
2021/09/27 06:08:13;;;;;;;24.88;17.05;;;14.70;99.90;;;;;;5054498;28;20032;-59
2021/09/27 06:10:56;;;;;;;22.30;15.07;;;14.80;99.90;;;;;;5063497;28;20035;-57
2021/09/27 06:13:22;;;;;;;23.33;14.53;;;14.90;99.90;;;;;;5067962;28;20037;-59
2021/09/27 06:15:52;;;;;;;23.88;15.90;;;14.90;99.90;;;;;;5061919;28;20033;-59
2021/09/27 06:18:36;;;;;;;20.08;14.38;;;14.90;99.90;;;;;;5056739;28;20048;-55
2021/09/27 06:21:23;;;;;;;20.80;15.40;;;14.90;99.90;;;;;;5063886;28;20413;-60
2021/09/27 06:24:08;;;;;;;22.85;15.43;;;14.90;99.90;;;;;;5055244;28;20025;-57
2021/09/27 06:26:44;;;;;;;19.17;13.85;;;14.90;99.90;;;;;;5064274;28;20040;-57
2021/09/27 06:29:21;;;;;;;14.93;12.63;;;14.90;99.90;;;;;;5055106;28;20040;-58
2021/09/27 06:32:08;;;;;;;18.80;13.73;;;14.90;99.90;;;;;;5067982;28;20074;-58
2021/09/27 06:34:39;;;;;;;20.98;13.55;;;15.00;99.90;;;;;;5059266;28;21276;-59
2021/09/27 06:37:05;;;;;;;19.38;14.15;;;15.10;99.90;;;;;;5053490;28;20122;-61
2021/09/27 06:39:31;;;;;;;19.35;14.70;;;15.20;99.90;;;;;;5060688;28;20013;-58
2021/09/27 06:41:57;;;;;;;19.45;13.10;;;15.30;99.90;;;;;;5067346;28;20028;-58
2021/09/27 06:44:24;;;;;;;17.40;12.93;;;15.40;99.90;;;;;;5070046;28;20032;-58
2021/09/27 06:46:50;;;;;;;16.98;12.68;;;15.50;99.90;;;;;;5075032;28;20037;-56
2021/09/27 06:49:16;;;;;;;17.52;12.80;;;15.60;99.90;;;;;;5066784;28;20028;-57
2021/09/27 06:51:42;;;;;;;18.88;11.85;;;15.70;99.90;;;;;;5071920;28;20398;-58
2021/09/27 06:54:09;;;;;;;15.10;11.20;;;15.90;99.90;;;;;;5065768;28;20425;-58
2021/09/27 06:56:35;;;;;;;16.35;10.43;;;16.00;99.90;;;;;;5079217;28;20061;-58
2021/09/27 06:59:01;;;;;;;15.32;10.52;;;16.20;99.90;;;;;;5063643;28;20033;-59
2021/09/27 07:01:27;;;;;;;12.90;10.23;;;16.40;99.90;;;;;;5037745;28;20045;-59
2021/09/27 07:03:53;;;;;;;13.73;9.73;;;16.40;99.90;;;;;;5061281;28;20393;-56
2021/09/27 07:06:18;;;;;;;16.30;10.23;;;16.40;99.90;;;;;;5061463;28;20029;-58
2021/09/27 07:08:44;;;;;;;12.07;9.52;;;16.40;99.90;;;;;;5056218;28;20029;-58
2021/09/27 07:11:12;;;;;;;13.80;9.43;;;16.40;99.90;;;;;;5067026;28;20028;-58
2021/09/27 07:13:38;;;;;;;12.32;8.70;;;16.40;99.90;;;;;;5068904;28;20165;-56
2021/09/27 07:16:04;;;;;;;13.02;9.05;;;16.40;99.90;;;;;;5066054;28;20044;-56
2021/09/27 07:18:29;;;;;;;13.00;8.80;;;16.40;99.90;;;;;;5061819;28;20028;-60
2021/09/27 07:20:58;;;;;;;13.18;10.50;;;16.50;99.90;;;;;;5068802;28;20539;-59
2021/09/27 07:23:24;;;;;;;11.57;8.63;;;16.60;99.90;;;;;;5055115;28;20028;-56
2021/09/27 07:25:50;;;;;;;14.10;9.30;;;16.80;99.90;;;;;;5064702;28;20025;-59
2021/09/27 07:28:17;;;;;;;12.50;7.68;;;17.00;99.90;;;;;;5056125;28;20036;-59
2021/09/27 07:30:43;;;;;;;10.77;8.23;;;17.50;99.90;;;;;;5062930;28;20028;-58
2021/09/27 07:33:10;;;;;;;12.25;8.80;;;17.80;99.90;;;;;;5076115;28;20371;-59
2021/09/27 07:35:36;;;;;;;13.15;7.95;;;18.00;99.90;;;;;;5077563;28;20107;-60
2021/09/27 07:38:02;;;;;;;11.80;7.40;;;18.10;99.90;;;;;;5057485;28;20048;-57
2021/09/27 07:40:31;;;;;;;10.60;7.53;;;18.30;99.90;;;;;;5064163;28;20052;-59
2021/09/27 07:42:57;;;;;;;10.82;6.93;;;18.50;99.90;;;;;;5074317;28;20051;-59
2021/09/27 07:45:25;;;;;;;9.93;6.47;;;19.00;99.90;;;;;;5065635;28;20028;-59
2021/09/27 07:47:50;;;;;;;9.68;6.60;;;19.30;99.90;;;;;;5058503;28;20032;-60
2021/09/27 07:50:17;;;;;;;8.77;6.10;;;19.30;99.90;;;;;;5063739;28;20047;-59
2021/09/27 07:52:43;;;;;;;8.52;5.85;;;19.30;99.90;;;;;;5060316;28;20032;-60
2021/09/27 07:55:10;;;;;;;9.57;6.10;;;19.30;99.90;;;;;;5059527;28;20035;-58
2021/09/27 07:57:36;;;;;;;8.25;5.97;;;19.30;99.90;;;;;;5068030;28;20032;-60
2021/09/27 08:00:05;;;;;;;7.35;5.28;;;19.30;99.90;;;;;;5074508;28;20021;-58
2021/09/27 08:02:30;;;;;;;6.07;5.47;;;19.40;99.90;;;;;;5055467;28;20025;-60
2021/09/27 08:04:57;;;;;;;6.68;4.93;;;19.50;99.90;;;;;;5065968;28;20090;-59
2021/09/27 08:07:23;;;;;;;7.57;5.65;;;19.60;99.90;;;;;;5067662;28;20509;-57
2021/09/27 08:09:50;;;;;;;7.82;5.22;;;19.60;99.90;;;;;;5059284;28;20024;-59
2021/09/27 08:12:15;;;;;;;10.40;6.00;;;19.50;99.90;;;;;;5056189;28;20044;-60
2021/09/27 08:14:41;;;;;;;7.78;5.38;;;19.60;99.90;;;;;;5065447;28;20025;-55
2021/09/27 08:17:06;;;;;;;7.30;5.53;;;19.60;99.90;;;;;;5070125;28;20051;-57
2021/09/27 08:19:35;;;;;;;7.53;5.20;;;19.60;99.90;;;;;;5067139;28;20031;-58
2021/09/27 08:22:01;;;;;;;8.50;5.07;;;19.70;99.90;;;;;;5065880;28;20485;-57
2021/09/27 08:24:26;;;;;;;9.52;5.28;;;19.80;99.90;;;;;;5066062;28;20043;-56
2021/09/27 08:26:52;;;;;;;7.50;4.88;;;20.00;99.90;;;;;;5070861;28;20032;-54
2021/09/27 08:29:18;;;;;;;7.15;4.78;;;20.10;99.90;;;;;;5077177;28;20028;-59
2021/09/27 08:31:43;;;;;;;6.75;4.78;;;20.00;99.90;;;;;;5067727;28;20107;-59
2021/09/27 08:34:09;;;;;;;11.02;4.72;;;20.10;99.90;;;;;;5060340;28;20537;-59
2021/09/27 08:36:35;;;;;;;11.18;5.35;;;20.20;99.90;;;;;;5068506;28;20027;-59
2021/09/27 08:39:02;;;;;;;5.13;4.05;;;20.30;99.90;;;;;;5073375;28;20403;-60
2021/09/27 08:41:47;;;;;;;7.40;4.97;;;20.50;99.90;;;;;;5075134;28;20031;-60
2021/09/27 08:44:41;;;;;;;6.97;4.55;;;20.90;99.90;;;;;;5070507;28;20699;-57
2021/09/27 08:47:19;;;;;;;6.05;4.38;;;21.10;99.90;;;;;;5069005;28;20141;-60
2021/09/27 08:49:53;;;;;;;7.55;3.65;;;21.30;99.90;;;;;;5078215;28;20025;-59
2021/09/27 08:52:22;;;;;;;7.15;4.25;;;21.80;99.90;;;;;;5075529;28;20032;-60
2021/09/27 08:54:50;;;;;;;4.28;3.30;;;21.90;99.90;;;;;;5090861;28;20113;-60
2021/09/27 08:57:54;;;;;;;9.52;3.88;;;22.20;99.90;;;;;;5076037;28;20039;-60
2021/09/27 09:00:31;;;;;;;4.93;3.67;;;22.40;99.90;;;;;;5063832;28;20044;-59
2021/09/27 09:03:07;;;;;;;6.70;3.55;;;22.30;99.90;;;;;;5074483;28;20481;-60
2021/09/27 09:06:04;;;;;;;6.05;4.20;;;22.10;99.90;;;;;;5074149;28;20096;-60
2021/09/27 09:08:35;;;;;;;5.80;3.83;;;21.90;99.90;;;;;;5072364;28;20035;-60
2021/09/27 09:11:22;;;;;;;7.57;3.85;;;21.40;99.90;;;;;;5080038;28;20149;-60
2021/09/27 09:14:01;;;;;;;5.60;3.60;;;21.20;99.90;;;;;;5072341;28;20493;-57
2021/09/27 09:16:28;;;;;;;8.70;3.78;;;21.10;99.90;;;;;;5065185;28;20051;-57
2021/09/27 09:18:57;;;;;;;5.68;3.70;;;21.10;99.90;;;;;;5071881;28;20025;-59
2021/09/27 09:21:29;;;;;;;4.45;3.50;;;21.00;99.90;;;;;;5075313;28;20059;-58
2021/09/27 09:23:58;;;;;;;5.20;3.85;;;21.00;99.90;;;;;;5076627;28;20027;-59
2021/09/27 09:26:34;;;;;;;5.78;3.58;;;21.00;99.90;;;;;;5078012;28;20032;-59
2021/09/27 09:29:00;;;;;;;7.45;3.47;;;21.10;99.90;;;;;;5082065;28;20074;-59
2021/09/27 09:31:34;;;;;;;5.95;3.58;;;21.40;99.90;;;;;;5076448;28;20033;-57
2021/09/27 09:34:22;;;;;;;4.35;2.85;;;22.20;99.90;;;;;;5077805;28;20039;-56
2021/09/27 09:36:53;;;;;;;4.93;3.30;;;23.40;99.90;;;;;;5076477;28;20059;-60
2021/09/27 09:39:27;;;;;;;7.47;3.30;;;24.40;99.90;;;;;;5080874;28;20031;-59
2021/09/27 09:41:56;;;;;;;5.85;3.60;;;24.30;99.90;;;;;;5080545;28;20044;-60
2021/09/27 09:44:27;;;;;;;8.43;3.50;;;24.00;99.90;;;;;;5073358;28;20029;-60
2021/09/27 09:47:08;;;;;;;9.60;3.20;;;23.70;99.90;;;;;;5071525;28;20033;-60
2021/09/27 09:49:52;;;;;;;4.93;3.55;;;23.40;99.90;;;;;;5057549;28;20810;-56
2021/09/27 09:53:04;;;;;;;7.10;3.20;;;23.70;99.90;;;;;;5062227;28;20032;-59
2021/09/27 09:55:34;;;;;;;5.80;3.50;;;23.70;99.90;;;;;;5039245;28;20044;-59
2021/09/27 09:58:03;;;;;;;6.10;3.30;;;23.60;99.90;;;;;;5073407;28;20028;-59
2021/09/27 10:00:34;;;;;;;4.78;3.42;;;23.40;99.90;;;;;;5072922;28;20024;-60
2021/09/27 10:03:01;;;;;;;6.20;3.30;;;23.30;99.90;;;;;;5079058;28;20028;-60
2021/09/27 10:05:36;;;;;;;4.00;3.25;;;22.80;99.90;;;;;;5075032;28;20028;-59
2021/09/27 10:08:06;;;;;;;4.85;3.60;;;22.80;99.90;;;;;;5081367;28;20031;-60
2021/09/27 10:10:38;;;;;;;5.75;3.30;;;22.50;99.90;;;;;;5078012;28;20028;-57
2021/09/27 10:13:26;;;;;;;8.75;4.60;;;22.70;99.90;;;;;;5072199;28;20020;-59
2021/09/27 10:15:51;;;;;;;4.45;3.35;;;22.70;99.90;;;;;;5078603;28;20040;-59
2021/09/27 10:18:29;;;;;;;6.25;3.13;;;22.60;99.90;;;;;;5069749;28;20109;-58
2021/09/27 10:21:03;;;;;;;7.05;3.72;;;22.70;99.90;;;;;;5068585;28;20033;-59
2021/09/27 10:23:42;;;;;;;5.63;3.20;;;22.60;99.90;;;;;;5064483;28;20026;-53
2021/09/27 10:26:25;;;;;;;5.50;2.95;;;22.60;99.90;;;;;;5062205;28;20017;-59
2021/09/27 10:28:53;;;;;;;5.45;3.00;;;22.50;99.90;;;;;;5063555;28;20024;-58
2021/09/27 10:31:21;;;;;;;5.03;3.00;;;22.30;99.90;;;;;;5065404;28;20036;-60
2021/09/27 10:34:04;;;;;;;4.85;3.10;;;22.20;99.90;;;;;;5074180;28;20028;-60
2021/09/27 10:36:56;;;;;;;6.50;2.55;;;22.10;99.90;;;;;;5063447;28;20032;-60
2021/09/27 10:39:23;;;;;;;5.88;2.85;;;21.80;99.90;;;;;;5069281;28;20431;-57
2021/09/27 10:41:59;;;;;;;3.80;2.20;;;21.70;99.90;;;;;;5074127;28;20021;-57
2021/09/27 10:44:42;;;;;;;4.53;2.75;;;21.60;99.90;;;;;;5063568;28;20025;-54
2021/09/27 10:47:28;;;;;;;4.38;2.50;;;21.40;99.90;;;;;;5067043;28;20482;-58
2021/09/27 10:50:21;;;;;;;12.77;2.80;;;21.40;99.90;;;;;;5066633;28;20574;-60
2021/09/27 10:52:49;;;;;;;5.00;2.70;;;21.30;99.90;;;;;;5067379;28;20017;-58
2021/09/27 10:55:36;;;;;;;4.15;2.63;;;21.20;99.90;;;;;;5076753;28;20485;-59
2021/09/27 10:58:08;;;;;;;6.57;2.33;;;21.20;99.90;;;;;;5077445;28;20485;-57
2021/09/27 11:00:34;;;;;;;10.27;2.50;;;21.30;99.90;;;;;;5071973;28;20013;-61
2021/09/27 11:03:08;;;;;;;4.88;2.40;;;21.60;99.90;;;;;;5073535;28;20016;-58
2021/09/27 11:05:51;;;;;;;3.30;2.50;;;21.80;99.90;;;;;;5069169;28;20017;-58
2021/09/27 11:08:34;;;;;;;9.80;2.40;;;22.00;99.90;;;;;;5065478;28;20063;-60
2021/09/27 11:11:15;;;;;;;7.63;2.30;;;22.30;99.90;;;;;;5078110;28;20389;-60
2021/09/27 11:13:43;;;;;;;4.25;2.05;;;22.30;99.90;;;;;;5075790;28;20089;-60
2021/09/27 11:16:33;;;;;;;5.55;3.13;;;22.10;99.90;;;;;;5076854;28;20401;-60
2021/09/27 11:19:13;;;;;;;3.60;2.17;;;22.20;99.90;;;;;;5060104;28;20052;-59
2021/09/27 11:21:47;;;;;;;6.85;2.40;;;22.40;99.90;;;;;;5061279;28;20128;-57
2021/09/27 11:24:15;;;;;;;5.82;2.15;;;22.40;99.90;;;;;;5059747;28;20055;-57
2021/09/27 11:27:07;;;;;;;6.00;2.17;;;22.30;99.90;;;;;;5063060;28;20025;-58
2021/09/27 11:29:35;;;;;;;3.33;1.90;;;22.10;99.90;;;;;;5060268;28;20032;-57
2021/09/27 11:32:25;;;;;;;3.78;1.50;;;22.10;99.90;;;;;;5066387;28;20089;-58
2021/09/27 11:35:09;;;;;;;6.10;2.25;;;22.20;99.90;;;;;;5068210;28;20543;-55
2021/09/27 11:37:55;;;;;;;2.58;1.40;;;22.20;99.90;;;;;;5080477;28;20408;-57
2021/09/27 11:40:23;;;;;;;3.53;1.60;;;22.30;99.90;;;;;;5066640;28;20024;-56
2021/09/27 11:42:51;;;;;;;9.77;2.08;;;22.60;99.90;;;;;;5064674;28;20070;-55
2021/09/27 11:45:23;;;;;;;3.92;2.10;;;22.90;99.90;;;;;;5059180;28;20052;-57
2021/09/27 11:48:31;;;;;;;5.32;2.22;;;23.10;99.90;;;;;;5063238;28;20028;-59
2021/09/27 11:51:18;;;;;;;4.53;1.80;;;23.00;99.90;;;;;;5052229;28;20044;-59
2021/09/27 11:54:01;;;;;;;2.60;1.60;;;22.80;99.90;;;;;;5059429;28;20028;-58
2021/09/27 11:56:38;;;;;;;2.58;1.38;;;22.60;99.90;;;;;;5059290;28;20056;-59
2021/09/27 11:59:26;;;;;;;4.18;1.73;;;22.60;99.90;;;;;;5059554;28;20031;-56
2021/09/27 12:02:29;;;;;;;5.13;1.75;;;22.60;99.90;;;;;;5063649;28;20021;-59
2021/09/27 12:05:02;;;;;;;3.28;1.65;;;22.30;99.90;;;;;;5061675;28;20064;-58
2021/09/27 12:07:42;;;;;;;2.80;1.58;;;22.30;99.90;;;;;;5058481;28;20036;-58
2021/09/27 12:10:16;;;;;;;3.78;1.80;;;22.30;99.90;;;;;;5065948;28;20032;-57
2021/09/27 12:12:55;;;;;;;1.92;1.50;;;22.00;99.90;;;;;;5066041;28;20033;-59
2021/09/27 12:15:37;;;;;;;5.10;1.70;;;21.80;99.90;;;;;;5068911;28;20024;-58
2021/09/27 12:18:03;;;;;;;1.60;1.48;;;21.60;99.90;;;;;;5068800;28;20034;-60
2021/09/27 12:20:39;;;;;;;5.75;1.70;;;21.50;99.90;;;;;;5064667;28;20432;-59
2021/09/27 12:23:10;;;;;;;2.92;1.52;;;21.30;99.90;;;;;;5069210;28;20078;-55
2021/09/27 12:25:39;;;;;;;3.58;1.77;;;21.20;99.90;;;;;;5063939;28;20055;-57
2021/09/27 12:28:08;;;;;;;4.05;1.70;;;20.90;99.90;;;;;;5052954;28;20035;-57
2021/09/27 12:30:38;;;;;;;2.95;2.22;;;20.80;99.90;;;;;;5057207;28;20104;-54
2021/09/27 12:33:24;;;;;;;3.53;1.90;;;21.00;99.90;;;;;;5062737;28;20099;-58
2021/09/27 12:36:05;;;;;;;2.58;1.40;;;21.20;99.90;;;;;;5061527;28;20021;-58
2021/09/27 12:38:32;;;;;;;2.70;1.45;;;21.40;99.90;;;;;;5067654;28;20114;-60
2021/09/27 12:40:59;;;;;;;3.80;1.80;;;21.70;99.90;;;;;;5055474;28;20020;-56
2021/09/27 12:43:31;;;;;;;5.00;1.45;;;21.80;99.90;;;;;;5053273;28;20589;-53
2021/09/27 12:46:01;;;;;;;4.05;1.80;;;22.00;99.90;;;;;;5058417;28;20025;-59
2021/09/27 12:48:31;;;;;;;3.00;1.80;;;22.00;99.90;;;;;;5053427;28;20032;-59
2021/09/27 12:51:00;;;;;;;2.10;1.90;;;21.90;99.90;;;;;;5055411;28;20032;-59
2021/09/27 12:53:45;;;;;;;2.13;1.70;;;22.00;99.90;;;;;;5055476;28;20052;-59
2021/09/27 12:56:12;;;;;;;5.75;1.70;;;21.90;99.90;;;;;;5058425;28;20363;-56
2021/09/27 12:58:44;;;;;;;3.08;1.85;;;22.00;99.90;;;;;;5056990;28;20089;-59
2021/09/27 13:01:18;;;;;;;3.92;1.67;;;22.10;99.90;;;;;;5061839;28;20014;-57
2021/09/27 13:03:50;;;;;;;3.25;1.63;;;22.10;99.90;;;;;;5061565;28;20025;-53
2021/09/27 13:06:30;;;;;;;2.22;1.30;;;22.20;99.90;;;;;;5057229;28;20021;-59
2021/09/27 13:09:23;;;;;;;2.78;1.70;;;22.20;99.90;;;;;;5064547;28;20032;-55
2021/09/27 13:12:08;;;;;;;2.90;1.63;;;22.10;99.90;;;;;;5069972;28;20032;-59
2021/09/27 13:14:42;;;;;;;10.98;1.70;;;22.30;99.90;;;;;;5069483;28;20131;-57
2021/09/27 13:17:29;;;;;;;8.70;1.98;;;22.40;99.90;;;;;;5068466;28;20024;-59
2021/09/27 13:19:57;;;;;;;2.00;1.80;;;22.50;99.90;;;;;;5074245;28;20024;-57
2021/09/27 13:22:25;;;;;;;2.92;1.50;;;22.20;99.80;;;;;;5074329;28;20512;-56
2021/09/27 13:25:00;;;;;;;4.25;1.42;;;22.10;99.90;;;;;;5071133;28;20069;-58